Time;durP1;ratioP1;P1;durP2;ratioP2;P2;SDS_P1;SDS_P2;PMS_P1;PMS_P2;Temp;Humidity;BMP_temperature;BMP_pressure;BME280_temperature;BME280_humidity;BME280_pressure;Samples;Min_cycle;Max_cycle;Signal;HPM_P1;HPM_P2
2022/07/27 00:00:19;;;;;;;4.13;1.00;;;;;;;13.11;78.09;101142.91;6049601;28;20038;-64
2022/07/27 00:03:14;;;;;;;5.67;1.20;;;;;;;13.23;76.38;101149.69;6050638;28;20037;-66
2022/07/27 00:06:10;;;;;;;4.73;1.20;;;;;;;13.00;77.69;101141.28;6050505;28;20065;-66
2022/07/27 00:09:08;;;;;;;3.30;1.30;;;;;;;13.03;78.49;101146.28;6049147;28;20555;-64
2022/07/27 00:12:04;;;;;;;3.58;1.00;;;;;;;13.03;77.98;101154.28;6048742;28;20068;-65
2022/07/27 00:14:59;;;;;;;3.25;1.10;;;;;;;12.73;77.91;101156.44;6050046;28;20026;-66
2022/07/27 00:17:57;;;;;;;5.80;1.17;;;;;;;12.61;78.68;101142.50;6050334;28;20044;-63
2022/07/27 00:20:52;;;;;;;6.80;1.20;;;;;;;12.65;78.38;101143.88;6048938;28;20291;-64
2022/07/27 00:23:47;;;;;;;2.93;1.10;;;;;;;12.52;78.83;101143.41;6049914;28;20034;-63
2022/07/27 00:26:43;;;;;;;3.75;1.08;;;;;;;12.51;79.98;101144.38;6050101;28;20032;-63
2022/07/27 00:29:38;;;;;;;4.27;1.20;;;;;;;12.34;80.32;101142.47;6049920;28;20030;-65
2022/07/27 00:32:33;;;;;;;3.08;1.20;;;;;;;12.97;80.43;101146.91;6047580;28;20037;-65
2022/07/27 00:35:29;;;;;;;4.53;0.87;;;;;;;12.68;79.05;101148.91;6049513;28;20040;-66
2022/07/27 00:38:24;;;;;;;3.73;1.57;;;;;;;12.51;79.53;101147.03;6049500;28;20438;-65
2022/07/27 00:41:19;;;;;;;4.93;1.40;;;;;;;12.42;80.91;101151.41;6049006;28;20284;-65
2022/07/27 00:44:27;;;;;;;4.30;0.97;;;;;;;12.33;80.71;101151.47;6049127;28;20272;-65
2022/07/27 00:47:23;;;;;;;2.85;0.90;;;;;;;12.38;80.52;101146.53;6049507;28;20429;-66
2022/07/27 00:50:18;;;;;;;2.17;0.77;;;;;;;12.18;80.51;101134.28;6048779;28;20376;-63
2022/07/27 00:53:15;;;;;;;2.40;0.93;;;;;;;12.25;81.52;101148.69;6049529;28;20030;-66
2022/07/27 00:56:11;;;;;;;3.65;0.80;;;;;;;12.16;81.91;101155.72;6049714;28;20764;-66
2022/07/27 00:59:07;;;;;;;4.00;1.42;;;;;;;12.01;82.34;101143.06;6064375;28;20026;-63
2022/07/27 01:02:03;;;;;;;6.43;1.23;;;;;;;12.04;82.38;101142.75;6047070;28;20030;-66
2022/07/27 01:04:58;;;;;;;4.22;0.90;;;;;;;12.11;82.71;101146.50;6049403;28;20461;-63
2022/07/27 01:07:54;;;;;;;2.80;0.83;;;;;;;12.05;82.73;101147.06;6049778;28;20037;-64
2022/07/27 01:10:51;;;;;;;5.30;1.30;;;;;;;11.97;82.82;101137.19;6048270;28;20030;-66
2022/07/27 01:13:46;;;;;;;3.28;0.95;;;;;;;12.09;83.77;101151.97;6048017;28;20037;-65
2022/07/27 01:16:42;;;;;;;2.80;0.90;;;;;;;12.72;82.13;101138.81;6049476;28;20485;-65
2022/07/27 01:19:37;;;;;;;3.90;0.93;;;;;;;12.43;81.39;101138.94;6049279;28;20335;-66
2022/07/27 01:22:32;;;;;;;3.63;1.00;;;;;;;12.58;81.68;101147.28;6047861;28;20062;-65
2022/07/27 01:25:28;;;;;;;3.23;1.03;;;;;;;12.37;81.28;101151.00;6049282;28;20036;-63
2022/07/27 01:28:23;;;;;;;3.67;1.03;;;;;;;12.58;81.30;101147.28;6049150;28;20049;-64
2022/07/27 01:31:18;;;;;;;2.30;0.70;;;;;;;12.43;82.01;101146.94;6047509;28;20030;-64
2022/07/27 01:34:13;;;;;;;4.37;0.93;;;;;;;12.37;81.96;101155.50;6048904;28;20049;-64
2022/07/27 01:37:09;;;;;;;5.93;1.07;;;;;;;12.14;82.48;101147.06;6049387;28;20030;-65
2022/07/27 01:40:04;;;;;;;4.47;1.70;;;;;;;12.08;82.06;101146.78;6048304;28;20466;-66
2022/07/27 01:43:00;;;;;;;3.22;0.85;;;;;;;12.04;83.02;101148.09;6047976;28;20516;-63
2022/07/27 01:45:55;;;;;;;1.65;0.65;;;;;;;11.92;83.13;101137.63;6053400;28;20034;-66
2022/07/27 01:48:50;;;;;;;5.30;0.90;;;;;;;11.82;83.53;101157.22;6053275;28;20026;-64
2022/07/27 01:51:46;;;;;;;4.87;0.97;;;;;;;11.72;84.29;101153.72;6052429;28;20029;-64
2022/07/27 01:54:41;;;;;;;3.07;0.83;;;;;;;11.57;84.54;101150.66;6052849;28;20468;-63
2022/07/27 01:57:37;;;;;;;4.57;1.10;;;;;;;11.61;85.46;101157.34;6053491;28;20083;-65
2022/07/27 02:00:33;;;;;;;3.60;1.35;;;;;;;11.53;85.38;101154.56;6052480;28;20025;-63
2022/07/27 02:03:28;;;;;;;2.38;1.20;;;;;;;11.86;85.74;101146.16;6052609;28;20508;-64
2022/07/27 02:06:24;;;;;;;3.83;1.00;;;;;;;12.12;84.99;101140.22;6052655;28;20103;-63
2022/07/27 02:09:19;;;;;;;3.17;1.17;;;;;;;12.04;84.80;101148.09;6052867;28;20524;-63
2022/07/27 02:15:28;;;;;;;6.90;1.27;;;;;;;12.28;83.61;101137.78;6052872;28;20030;-66
2022/07/27 02:18:24;;;;;;;4.60;1.20;;;;;;;12.64;81.37;101147.50;6052789;28;20057;-66
2022/07/27 02:21:19;;;;;;;7.97;0.93;;;;;;;12.72;82.03;101134.31;6051760;28;20030;-66
2022/07/27 02:24:14;;;;;;;5.47;1.20;;;;;;;12.40;82.30;101133.91;6052620;28;20077;-66
2022/07/27 02:27:10;;;;;;;4.27;1.03;;;;;;;12.24;84.18;101144.34;6052489;28;20037;-66
2022/07/27 02:30:06;;;;;;;5.57;1.10;;;;;;;12.54;82.54;101136.09;6051757;28;20421;-66
2022/07/27 02:33:01;;;;;;;4.57;1.02;;;;;;;12.45;82.57;101134.31;6051816;28;20121;-66
2022/07/27 02:35:57;;;;;;;9.50;1.73;;;;;;;12.19;84.01;101146.63;6052107;28;20092;-65
2022/07/27 02:38:53;;;;;;;2.73;0.90;;;;;;;12.30;85.45;101144.63;6052246;28;20041;-66
2022/07/27 02:41:48;;;;;;;7.50;1.15;;;;;;;12.09;85.46;101135.19;6051100;28;20033;-65
2022/07/27 02:44:43;;;;;;;4.37;1.60;;;;;;;12.16;85.59;101152.22;6052106;28;20038;-64
2022/07/27 02:47:39;;;;;;;6.10;1.03;;;;;;;11.83;85.24;101137.63;6052346;28;20026;-64
2022/07/27 02:50:34;;;;;;;4.27;1.00;;;;;;;12.01;85.28;101143.91;6051123;28;20342;-64
2022/07/27 02:53:29;;;;;;;4.03;1.00;;;;;;;11.77;85.24;101135.53;6051991;28;20269;-63
2022/07/27 02:56:25;;;;;;;3.70;1.00;;;;;;;11.66;86.65;101139.16;6051327;28;20145;-66
2022/07/27 02:59:21;;;;;;;3.97;1.00;;;;;;;11.50;86.90;101148.69;6051463;28;20108;-66
2022/07/27 03:02:16;;;;;;;4.15;1.10;;;;;;;11.55;87.43;101144.63;6050711;28;20029;-66
2022/07/27 03:05:11;;;;;;;2.37;1.00;;;;;;;11.38;87.77;101142.72;6051803;28;20034;-65
2022/07/27 03:08:07;;;;;;;5.03;1.27;;;;;;;11.53;88.30;101149.25;6051581;28;20458;-64
2022/07/27 03:11:02;;;;;;;4.17;1.10;;;;;;;11.38;87.60;101145.38;6050784;28;20022;-66
2022/07/27 03:13:57;;;;;;;4.70;1.00;;;;;;;11.51;89.32;101140.59;6051289;28;20111;-63
2022/07/27 03:16:53;;;;;;;4.70;1.10;;;;;;;11.68;88.38;101147.00;6051455;28;20033;-63
2022/07/27 03:19:48;;;;;;;3.92;1.35;;;;;;;11.84;87.37;101137.50;6051028;28;20034;-64
2022/07/27 03:22:44;;;;;;;7.57;1.30;;;;;;;11.60;87.17;101139.75;6050449;28;20030;-65
2022/07/27 03:25:39;;;;;;;5.50;1.10;;;;;;;11.66;87.89;101154.28;6041878;28;20022;-64
2022/07/27 03:28:34;;;;;;;1.90;0.97;;;;;;;11.56;86.83;101151.63;6047329;28;20101;-67
2022/07/27 03:31:30;;;;;;;2.63;1.08;;;;;;;11.46;88.17;101149.97;6050370;28;20129;-64
2022/07/27 03:34:25;;;;;;;4.23;1.20;;;;;;;11.63;88.16;101157.22;6050889;28;20026;-66
2022/07/27 03:37:20;;;;;;;5.73;1.13;;;;;;;11.44;87.63;101160.72;6050293;28;20025;-65
2022/07/27 03:40:16;;;;;;;6.70;2.57;;;;;;;11.52;87.06;101166.19;6050490;28;20072;-65
2022/07/27 03:43:11;;;;;;;5.73;1.23;;;;;;;11.54;87.54;101166.03;6050621;28;20109;-64
2022/07/27 03:46:06;;;;;;;6.43;1.73;;;;;;;11.47;88.29;101175.56;6051056;28;20034;-64
2022/07/27 03:49:01;;;;;;;5.93;1.30;;;;;;;11.82;88.53;101167.88;6050881;28;20053;-64
2022/07/27 03:51:57;;;;;;;3.37;1.50;;;;;;;11.72;86.84;101159.88;6049654;28;20037;-66
2022/07/27 03:54:52;;;;;;;5.77;1.20;;;;;;;11.71;86.78;101162.69;6050625;28;20539;-66
2022/07/27 03:57:47;;;;;;;4.60;1.10;;;;;;;11.99;86.23;101166.25;6050193;28;20038;-65
2022/07/27 04:00:44;;;;;;;3.47;1.10;;;;;;;11.89;86.04;101164.47;6049340;28;20300;-64
2022/07/27 04:03:39;;;;;;;3.88;1.05;;;;;;;12.06;85.73;101162.06;6050481;28;20263;-65
2022/07/27 04:06:34;;;;;;;3.83;1.60;;;;;;;12.11;85.36;101173.94;6049594;28;20381;-64
2022/07/27 04:09:30;;;;;;;7.20;1.40;;;;;;;12.32;85.51;101168.41;6050445;28;20057;-64
2022/07/27 04:12:25;;;;;;;5.90;1.27;;;;;;;12.40;84.26;101172.00;6049216;28;20029;-64
2022/07/27 04:15:21;;;;;;;2.90;1.30;;;;;;;12.72;83.39;101176.06;6050239;28;20095;-66
2022/07/27 04:18:16;;;;;;;3.55;1.70;;;;;;;12.65;83.59;101175.81;6050295;28;20033;-63
2022/07/27 04:21:12;;;;;;;2.53;1.10;;;;;;;12.65;82.29;101159.84;6048637;28;20049;-65
2022/07/27 04:24:07;;;;;;;6.03;1.15;;;;;;;12.80;82.08;101169.00;6049570;28;20064;-64
2022/07/27 04:27:02;;;;;;;4.40;1.10;;;;;;;12.80;81.08;101158.34;6044553;28;20043;-63
2022/07/27 04:29:58;;;;;;;5.53;1.20;;;;;;;13.07;80.86;101158.34;6049873;28;20030;-65
2022/07/27 04:32:53;;;;;;;5.10;1.27;;;;;;;13.37;79.50;101174.97;6048864;28;20046;-65
2022/07/27 04:35:48;;;;;;;5.37;1.07;;;;;;;13.41;79.37;101158.50;6049701;28;20034;-65
2022/07/27 04:38:44;;;;;;;4.00;1.17;;;;;;;13.43;79.45;101161.00;6049514;28;20048;-66
2022/07/27 04:41:39;;;;;;;2.67;1.23;;;;;;;13.48;79.01;101158.75;6049051;28;20034;-66
2022/07/27 04:44:34;;;;;;;3.60;1.42;;;;;;;13.45;78.98;101164.38;6050014;28;20030;-64
2022/07/27 04:47:30;;;;;;;2.83;1.10;;;;;;;13.70;79.36;101152.91;6049389;28;20037;-65
2022/07/27 04:50:25;;;;;;;4.07;1.70;;;;;;;13.44;78.13;101158.19;6048658;28;20033;-66
2022/07/27 04:53:20;;;;;;;4.18;1.02;;;;;;;13.49;78.93;101161.22;6049776;28;20385;-64
2022/07/27 04:56:15;;;;;;;4.67;1.30;;;;;;;13.32;79.11;101171.88;6049564;28;20061;-63
2022/07/27 04:59:11;;;;;;;3.37;1.10;;;;;;;13.52;79.16;101160.94;6049580;28;20025;-66
2022/07/27 05:02:06;;;;;;;5.83;1.10;;;;;;;13.53;79.27;101161.78;6048709;28;20378;-64
2022/07/27 05:05:01;;;;;;;7.20;1.30;;;;;;;13.54;78.77;101160.75;6049474;28;20041;-64
2022/07/27 05:07:57;;;;;;;5.93;1.37;;;;;;;13.74;78.53;101170.25;6049518;28;20045;-65
2022/07/27 05:10:52;;;;;;;3.20;1.03;;;;;;;13.61;78.44;101181.34;6048623;28;20057;-64
2022/07/27 05:13:47;;;;;;;4.37;1.27;;;;;;;13.69;78.26;101167.22;6049301;28;20030;-66
2022/07/27 05:16:43;;;;;;;6.23;1.57;;;;;;;14.17;77.25;101172.88;6049427;28;20033;-67
2022/07/27 05:19:38;;;;;;;2.70;1.20;;;;;;;14.48;75.76;101185.75;6053195;28;20030;-66
2022/07/27 05:22:33;;;;;;;3.13;1.00;;;;;;;14.49;75.07;101187.41;6053017;28;20052;-63
2022/07/27 05:25:29;;;;;;;4.82;1.00;;;;;;;14.85;73.37;101175.56;6053625;28;20521;-64
2022/07/27 05:28:24;;;;;;;5.20;1.50;;;;;;;14.99;73.83;101185.63;6054668;28;20155;-65
2022/07/27 05:31:20;;;;;;;8.43;1.10;;;;;;;15.51;72.04;101180.06;6051545;28;20034;-67
2022/07/27 05:34:15;;;;;;;4.87;1.20;;;;;;;15.41;71.47;101185.50;6054078;28;20048;-66
2022/07/27 05:37:11;;;;;;;4.40;1.20;;;;;;;16.02;70.11;101185.03;6053777;28;20731;-66
2022/07/27 05:40:07;;;;;;;3.22;0.90;;;;;;;16.29;67.25;101186.47;6052542;28;20488;-63
2022/07/27 05:43:03;;;;;;;4.43;1.10;;;;;;;16.48;66.62;101197.66;6052837;28;20379;-64
2022/07/27 05:45:58;;;;;;;4.67;1.10;;;;;;;16.48;66.30;101192.28;6052292;28;20049;-66
2022/07/27 05:48:53;;;;;;;6.03;1.10;;;;;;;16.56;66.41;101205.69;6053072;28;20121;-64
2022/07/27 05:51:49;;;;;;;4.43;1.00;;;;;;;16.37;66.13;101206.03;6052279;28;20034;-65
2022/07/27 05:54:44;;;;;;;3.93;1.07;;;;;;;16.89;65.12;101217.09;6053162;28;20037;-65
2022/07/27 05:57:40;;;;;;;4.63;1.15;;;;;;;17.20;63.42;101215.25;6053277;28;20029;-63
2022/07/27 06:00:35;;;;;;;2.55;0.93;;;;;;;17.39;64.13;101227.38;6052059;28;20030;-63
2022/07/27 06:03:30;;;;;;;4.07;1.00;;;;;;;17.70;63.01;101222.81;6053396;28;20042;-66
2022/07/27 06:09:39;;;;;;;3.67;0.98;;;;;;;17.76;61.53;101232.84;6052703;28;20281;-66
2022/07/27 06:12:38;;;;;;;3.47;1.15;;;;;;;17.97;60.87;101234.00;6052259;28;20038;-64
2022/07/27 06:15:35;;;;;;;2.78;0.90;;;;;;;17.60;61.41;101229.44;6052750;28;20061;-64
2022/07/27 06:18:30;;;;;;;5.13;1.10;;;;;;;17.95;60.92;101231.50;6052620;28;20084;-66
2022/07/27 06:21:27;;;;;;;3.58;1.00;;;;;;;17.80;60.00;101228.75;6051989;28;20381;-63
2022/07/27 06:24:22;;;;;;;6.10;1.55;;;;;;;18.17;58.97;101225.25;6053013;28;20470;-67
2022/07/27 06:27:17;;;;;;;3.70;1.00;;;;;;;17.92;56.26;101239.06;6052856;28;20123;-64
2022/07/27 06:30:15;;;;;;;2.63;0.80;;;;;;;17.53;57.99;101248.09;6050662;28;20030;-64
2022/07/27 06:33:11;;;;;;;3.63;0.95;;;;;;;16.78;58.81;101230.03;6051423;28;20101;-64
2022/07/27 06:36:07;;;;;;;4.28;0.98;;;;;;;16.90;60.08;101242.06;6052110;28;20061;-66
2022/07/27 06:39:02;;;;;;;6.13;1.27;;;;;;;17.04;59.59;101233.28;6052158;28;20113;-63
2022/07/27 06:41:57;;;;;;;3.97;1.00;;;;;;;17.23;58.71;101240.84;6051785;28;20026;-66
2022/07/27 06:44:53;;;;;;;5.77;0.90;;;;;;;17.04;58.62;101238.66;6052099;28;20029;-63
2022/07/27 06:47:49;;;;;;;7.95;0.95;;;;;;;17.19;58.84;101245.75;6052012;28;20113;-64
2022/07/27 06:50:45;;;;;;;2.13;0.70;;;;;;;16.91;58.63;101241.03;6051079;28;20061;-64
2022/07/27 06:53:40;;;;;;;4.17;0.80;;;;;;;16.72;59.90;101249.47;6048526;28;20022;-66
2022/07/27 06:56:36;;;;;;;5.82;1.20;;;;;;;17.09;58.22;101244.31;6051735;28;20476;-66
2022/07/27 06:59:33;;;;;;;4.07;0.90;;;;;;;17.51;57.72;101247.41;6051324;28;20473;-66
2022/07/27 07:02:28;;;;;;;4.60;1.20;;;;;;;17.46;56.88;101244.44;6050732;28;20392;-66
2022/07/27 07:05:24;;;;;;;3.63;0.80;;;;;;;17.47;57.22;101238.06;6049396;28;20033;-63
2022/07/27 07:08:21;;;;;;;3.53;0.95;;;;;;;17.64;56.00;101238.78;6049819;28;20061;-64
2022/07/27 07:11:16;;;;;;;2.25;0.80;;;;;;;17.92;55.86;101242.59;6049815;28;20466;-64
2022/07/27 07:14:12;;;;;;;6.73;1.00;;;;;;;18.19;54.52;101244.69;6050435;28;20052;-64
2022/07/27 07:17:07;;;;;;;7.33;1.20;;;;;;;18.04;52.97;101229.59;6051005;28;20617;-65
2022/07/27 07:20:04;;;;;;;6.57;1.10;;;;;;;17.83;54.06;101246.34;6050447;28;20041;-64
2022/07/27 07:22:59;;;;;;;3.80;1.00;;;;;;;18.27;52.84;101241.94;6051508;28;20104;-66
2022/07/27 07:25:54;;;;;;;2.03;0.80;;;;;;;18.18;53.84;101234.97;6051493;28;20542;-64
2022/07/27 07:28:50;;;;;;;3.23;0.70;;;;;;;17.91;51.10;101216.75;6050670;28;20477;-64
2022/07/27 07:31:45;;;;;;;5.57;0.80;;;;;;;18.14;51.33;101236.38;6049725;28;20076;-63
2022/07/27 07:34:41;;;;;;;5.87;1.07;;;;;;;18.44;48.68;101245.28;6050879;28;20265;-64
2022/07/27 07:37:37;;;;;;;4.07;0.95;;;;;;;18.26;50.54;101229.50;6051117;28;20732;-66
2022/07/27 07:40:32;;;;;;;2.95;0.70;;;;;;;18.38;49.96;101232.59;6049353;28;20030;-64
2022/07/27 07:43:27;;;;;;;6.63;1.83;;;;;;;18.60;49.61;101237.09;6050349;28;20030;-63
2022/07/27 07:46:23;;;;;;;3.42;0.85;;;;;;;18.79;50.02;101233.84;6050870;28;20029;-66
2022/07/27 07:49:18;;;;;;;5.33;0.77;;;;;;;19.46;48.95;101237.16;6050099;28;20033;-62
2022/07/27 07:52:13;;;;;;;2.87;0.63;;;;;;;19.52;46.94;101239.09;6050008;28;20036;-65
2022/07/27 07:55:09;;;;;;;5.90;1.00;;;;;;;19.10;48.40;101238.16;6050610;28;20372;-64
2022/07/27 07:58:04;;;;;;;3.67;0.80;;;;;;;19.24;47.92;101234.59;6050624;28;20021;-65
2022/07/27 08:01:00;;;;;;;3.83;0.73;;;;;;;19.02;48.32;101250.66;6048802;28;20057;-64
2022/07/27 08:03:55;;;;;;;2.37;0.70;;;;;;;18.81;48.32;101249.75;6050104;28;20083;-65
2022/07/27 08:06:51;;;;;;;3.67;0.90;;;;;;;19.53;46.78;101253.38;6050558;28;20360;-64
2022/07/27 08:09:46;;;;;;;4.78;0.90;;;;;;;19.24;46.21;101240.00;6049903;28;20029;-66
2022/07/27 08:12:44;;;;;;;6.10;1.00;;;;;;;18.64;47.56;101242.94;6049841;28;20025;-64
2022/07/27 08:15:39;;;;;;;5.05;0.93;;;;;;;18.31;49.07;101248.63;6050221;28;20032;-64
2022/07/27 08:18:35;;;;;;;5.40;1.20;;;;;;;18.01;49.52;101246.88;6049635;28;20030;-65
2022/07/27 08:21:30;;;;;;;2.87;0.57;;;;;;;17.99;48.94;101253.47;6049433;28;20041;-66
2022/07/27 08:24:25;;;;;;;3.13;0.87;;;;;;;18.42;49.86;101250.88;6049868;28;20365;-66
2022/07/27 08:27:21;;;;;;;8.93;1.00;;;;;;;18.87;49.17;101238.28;6050172;28;20450;-64
2022/07/27 08:30:16;;;;;;;3.30;0.70;;;;;;;18.15;50.63;101262.22;6049177;28;20312;-66
2022/07/27 08:33:11;;;;;;;3.13;0.77;;;;;;;17.87;52.35;101260.25;6049867;28;20029;-64
2022/07/27 08:36:07;;;;;;;6.50;1.03;;;;;;;17.74;52.73;101261.72;6049869;28;20407;-64
2022/07/27 08:39:07;;;;;;;3.13;0.70;;;;;;;17.97;52.73;101244.72;6049396;28;20381;-66
2022/07/27 08:42:03;;;;;;;;;;;;;;;17.97;52.84;101259.00;6036893;28;20160;-64
2022/07/27 08:44:58;;;;;;;3.95;0.93;;;;;;;17.64;51.98;101254.88;6049921;28;19906;-65
2022/07/27 08:47:54;;;;;;;2.17;0.70;;;;;;;17.40;52.41;101255.00;6051172;28;20088;-64
2022/07/27 08:50:50;;;;;;;3.83;0.73;;;;;;;17.27;52.13;101250.25;6049042;28;20030;-64
2022/07/27 08:53:46;;;;;;;2.80;0.80;;;;;;;18.45;50.37;101246.97;6049074;28;20026;-66
2022/07/27 08:56:42;;;;;;;4.43;0.90;;;;;;;19.67;47.07;101244.41;6049670;28;20033;-65
2022/07/27 08:59:37;;;;;;;1.98;0.63;;;;;;;19.94;46.92;101232.88;6049513;28;20033;-66
2022/07/27 09:02:33;;;;;;;3.33;0.60;;;;;;;19.58;47.47;101237.47;6048579;28;20417;-64
2022/07/27 09:05:29;;;;;;;4.18;0.98;;;;;;;18.68;49.16;101239.69;6049387;28;20493;-63
2022/07/27 09:08:26;;;;;;;4.65;0.80;;;;;;;18.01;51.22;101246.06;6049256;28;20029;-65
2022/07/27 09:11:22;;;;;;;4.22;1.08;;;;;;;17.85;51.98;101247.84;6049308;28;20030;-64
2022/07/27 09:14:17;;;;;;;3.83;0.73;;;;;;;18.31;51.30;101242.41;6049153;28;20103;-63
2022/07/27 09:17:24;;;;;;;2.77;0.73;;;;;;;18.99;48.33;101228.72;6048202;28;20033;-64
2022/07/27 09:20:19;;;;;;;4.90;0.98;;;;;;;19.58;45.61;101232.09;6048793;28;20433;-64
2022/07/27 09:23:25;;;;;;;2.67;0.60;;;;;;;19.85;43.97;101215.19;6049168;28;20477;-64
2022/07/27 09:26:22;;;;;;;3.40;0.80;;;;;;;20.71;42.13;101222.00;6049114;28;20041;-64
2022/07/27 09:29:18;;;;;;;1.95;1.00;;;;;;;21.11;41.30;101223.91;6049143;28;20033;-64
2022/07/27 09:32:14;;;;;;;5.38;0.70;;;;;;;21.11;40.29;101221.19;6048564;28;20516;-64
2022/07/27 09:35:27;;;;;;;3.65;0.77;;;;;;;20.65;40.70;101228.22;6048774;28;20113;-66
2022/07/27 09:38:23;;;;;;;6.32;0.80;;;;;;;19.62;43.09;101227.19;6048995;28;20033;-63
2022/07/27 09:41:19;;;;;;;4.00;1.23;;;;;;;19.45;44.06;101229.28;6047743;28;20081;-63
2022/07/27 09:44:14;;;;;;;2.67;0.80;;;;;;;19.32;44.72;101221.84;6048105;28;20067;-66
2022/07/27 09:47:27;;;;;;;5.65;1.00;;;;;;;19.84;44.70;101224.25;6048525;28;20084;-64
2022/07/27 09:50:24;;;;;;;3.95;0.77;;;;;;;20.85;42.09;101221.03;6047372;28;20034;-65
2022/07/27 09:53:21;;;;;;;2.80;0.70;;;;;;;20.03;40.22;101220.91;6048205;28;20041;-64
2022/07/27 09:56:24;;;;;;;4.38;0.60;;;;;;;19.38;42.14;101231.06;6048662;28;20061;-64
2022/07/27 09:59:19;;;;;;;2.75;0.60;;;;;;;19.90;41.81;101228.88;6049159;28;20025;-64
2022/07/27 10:02:15;;;;;;;3.37;0.83;;;;;;;20.67;39.90;101208.13;6048056;28;20068;-66
2022/07/27 10:05:10;;;;;;;4.47;0.95;;;;;;;21.20;39.51;101216.44;6049599;28;20026;-63
2022/07/27 10:08:05;;;;;;;2.87;0.90;;;;;;;21.51;37.66;101205.09;6052729;28;20377;-64
2022/07/27 10:11:01;;;;;;;2.20;0.57;;;;;;;21.63;38.41;101198.06;6052171;28;20060;-64
2022/07/27 10:13:58;;;;;;;4.13;0.90;;;;;;;21.40;38.57;101216.50;6052745;28;20029;-66
2022/07/27 10:16:53;;;;;;;4.80;0.80;;;;;;;20.58;38.57;101214.69;6052380;28;20032;-64
2022/07/27 10:19:49;;;;;;;2.60;0.70;;;;;;;20.37;39.49;101222.03;6051609;28;20464;-65
2022/07/27 10:22:48;;;;;;;4.30;1.23;;;;;;;20.92;38.43;101211.13;6052320;28;20049;-63
2022/07/27 10:25:44;;;;;;;3.63;0.63;;;;;;;20.66;38.28;101211.84;6052182;28;20369;-64
2022/07/27 10:28:55;;;;;;;3.70;0.80;;;;;;;21.10;38.52;101210.59;6052694;28;20034;-65
2022/07/27 10:31:53;;;;;;;3.72;1.00;;;;;;;21.58;38.86;101216.75;6050938;28;20468;-64
2022/07/27 10:34:48;;;;;;;2.72;0.80;;;;;;;21.27;38.37;101207.34;6052403;28;20508;-63
2022/07/27 10:38:06;;;;;;;3.17;0.57;;;;;;;20.60;40.42;101222.59;6051757;28;20037;-64
2022/07/27 10:41:20;;;;;;;5.00;0.90;;;;;;;20.19;40.88;101215.22;6051816;28;20034;-63
2022/07/27 10:44:16;;;;;;;3.85;1.10;;;;;;;20.09;41.41;101214.75;6051916;28;20037;-63
2022/07/27 10:47:27;;;;;;;6.43;1.00;;;;;;;20.72;40.61;101220.97;6052042;28;20069;-65
2022/07/27 10:50:25;;;;;;;2.88;0.75;;;;;;;20.75;39.35;101215.19;6051367;28;20152;-64
2022/07/27 10:53:32;;;;;;;1.48;0.60;;;;;;;20.38;39.76;101213.75;6051284;28;20021;-64
2022/07/27 10:56:44;;;;;;;6.82;0.93;;;;;;;20.04;39.15;101206.44;6047672;28;20034;-66
2022/07/27 10:59:42;;;;;;;3.72;0.68;;;;;;;20.91;39.28;101209.47;6048274;28;20065;-63
2022/07/27 11:02:40;;;;;;;1.67;0.70;;;;;;;21.82;37.74;101197.25;6048803;28;20317;-65
2022/07/27 11:05:35;;;;;;;3.38;0.73;;;;;;;21.96;36.81;101196.22;6054753;28;20026;-66
2022/07/27 11:08:33;;;;;;;2.33;0.77;;;;;;;21.27;38.88;101212.75;6049030;28;20454;-64
2022/07/27 11:11:29;;;;;;;3.72;0.93;;;;;;;21.02;39.99;101206.19;6048347;28;20030;-66
2022/07/27 11:14:27;;;;;;;3.13;0.70;;;;;;;20.98;39.29;101199.53;6065969;28;20026;-65
2022/07/27 11:17:26;;;;;;;5.95;1.10;;;;;;;21.25;39.18;101206.69;6050761;28;20409;-64
2022/07/27 11:20:22;;;;;;;3.70;0.82;;;;;;;21.57;38.71;101217.78;6050333;28;20030;-65
2022/07/27 11:23:19;;;;;;;3.38;0.80;;;;;;;20.85;38.77;101218.34;6050961;28;20019;-63
2022/07/27 11:26:15;;;;;;;4.07;1.00;;;;;;;20.16;40.35;101215.63;6050409;28;20577;-64
2022/07/27 11:29:11;;;;;;;4.25;0.85;;;;;;;20.56;40.68;101211.38;6051074;28;20030;-63
2022/07/27 11:32:07;;;;;;;4.13;0.77;;;;;;;21.09;37.61;101196.28;6048832;28;20036;-65
2022/07/27 11:35:12;;;;;;;3.10;0.80;;;;;;;21.79;36.57;101197.66;6065874;28;20372;-65
2022/07/27 11:38:07;;;;;;;2.88;0.85;;;;;;;22.45;35.99;101193.88;6050384;28;20474;-65
2022/07/27 11:41:03;;;;;;;2.63;0.73;;;;;;;22.70;35.37;101179.69;6050148;28;20061;-66
2022/07/27 11:43:59;;;;;;;4.10;0.70;;;;;;;;;;6050445;28;20038;-66
2022/07/27 11:46:55;;;;;;;4.28;0.70;;;;;;;23.29;34.83;101185.63;6050188;28;20034;-65
2022/07/27 11:49:50;;;;;;;2.33;0.68;;;;;;;23.64;33.82;101183.34;6051114;28;20062;-65
2022/07/27 11:52:54;;;;;;;2.30;0.97;;;;;;;23.22;35.51;101189.41;6049335;28;20034;-65
2022/07/27 11:55:50;;;;;;;4.32;0.85;;;;;;;23.37;34.19;101182.69;6050284;28;20269;-66
2022/07/27 11:59:03;;;;;;;4.90;1.00;;;;;;;23.19;34.62;101196.09;6050267;28;20370;-65
2022/07/27 12:02:12;;;;;;;6.30;0.88;;;;;;;22.55;35.37;101190.75;6049538;28;20783;-66
2022/07/27 12:05:09;;;;;;;2.42;0.80;;;;;;;22.61;36.17;101197.16;6049483;28;20053;-65
2022/07/27 12:08:05;;;;;;;4.90;1.17;;;;;;;23.46;34.91;101194.94;6050057;28;20034;-65
2022/07/27 12:11:00;;;;;;;2.92;0.73;;;;;;;22.96;34.76;101188.53;6049254;28;20100;-63
2022/07/27 12:13:57;;;;;;;3.87;0.70;;;;;;;23.34;34.36;101199.38;6049681;28;20026;-65
2022/07/27 12:17:12;;;;;;;3.55;0.88;;;;;;;22.78;33.73;101203.78;6049437;28;20029;-63
2022/07/27 12:20:10;;;;;;;2.33;0.70;;;;;;;23.38;35.82;101186.22;6048976;28;20056;-65
2022/07/27 12:23:07;;;;;;;2.13;0.88;;;;;;;22.77;35.32;101192.16;6051363;28;20029;-64
2022/07/27 12:26:21;;;;;;;3.58;0.88;;;;;;;22.17;36.72;101195.19;6048921;28;20068;-64
2022/07/27 12:29:17;;;;;;;1.83;0.60;;;;;;;21.94;38.28;101195.59;6047725;28;20104;-64
2022/07/27 12:32:14;;;;;;;5.13;0.80;;;;;;;21.84;38.54;101197.88;6045095;28;20036;-64
2022/07/27 12:35:22;;;;;;;3.47;0.90;;;;;;;21.92;37.40;101203.09;6048592;28;20021;-63
2022/07/27 12:38:18;;;;;;;3.33;0.80;;;;;;;21.91;38.62;101188.75;6048218;28;20034;-64
2022/07/27 12:41:25;;;;;;;0.93;0.40;;;;;;;21.71;38.15;101206.81;6048239;28;20030;-64
2022/07/27 12:44:20;;;;;;;1.75;0.80;;;;;;;21.84;38.83;101203.28;6049472;28;20075;-64
2022/07/27 12:50:34;;;;;;;5.72;1.20;;;;;;;23.21;36.14;101177.75;6048737;28;20120;-65
2022/07/27 12:53:30;;;;;;;2.40;0.80;;;;;;;24.03;34.81;101182.19;6056220;28;20042;-64
2022/07/27 12:56:26;;;;;;;2.30;0.95;;;;;;;23.91;33.65;101173.13;6048881;28;20042;-65
2022/07/27 12:59:22;;;;;;;6.80;1.17;;;;;;;23.51;33.26;101178.84;6049016;28;20037;-65
2022/07/27 13:02:17;;;;;;;4.32;1.27;;;;;;;23.27;33.78;101182.31;6048455;28;20026;-64
2022/07/27 13:05:13;;;;;;;2.57;0.80;;;;;;;22.84;34.82;101197.53;6048582;28;20351;-65
2022/07/27 13:08:09;;;;;;;5.18;1.08;;;;;;;23.27;34.64;101197.72;6048374;28;20484;-66
2022/07/27 13:11:04;;;;;;;3.28;0.85;;;;;;;23.17;33.87;101171.13;6048500;28;20049;-64
2022/07/27 13:14:00;;;;;;;3.80;0.77;;;;;;;22.75;34.35;101183.41;6048883;28;20048;-64
2022/07/27 13:16:55;;;;;;;2.97;0.80;;;;;;;22.74;35.45;101191.75;6048963;28;20034;-64
2022/07/27 13:19:50;;;;;;;3.63;0.90;;;;;;;23.11;34.44;101188.25;6049059;28;20065;-64
2022/07/27 13:22:46;;;;;;;2.10;0.70;;;;;;;23.03;35.30;101183.06;6048225;28;20034;-65
2022/07/27 13:25:41;;;;;;;4.03;0.80;;;;;;;22.51;35.09;101182.22;6048401;28;20033;-66
2022/07/27 13:28:36;;;;;;;1.90;0.70;;;;;;;23.09;35.55;101174.09;6048859;28;20053;-66
2022/07/27 13:31:32;;;;;;;5.20;0.90;;;;;;;24.25;33.55;101186.16;6046714;28;20113;-66
2022/07/27 13:34:27;;;;;;;3.08;1.05;;;;;;;23.87;33.30;101182.75;6048513;28;20029;-66
2022/07/27 13:37:23;;;;;;;2.43;0.83;;;;;;;23.45;33.89;101185.16;6046639;28;20034;-64
2022/07/27 13:40:18;;;;;;;1.83;0.70;;;;;;;22.73;35.31;101176.56;6052086;28;20276;-65
2022/07/27 13:43:13;;;;;;;2.90;0.80;;;;;;;22.02;36.93;101203.50;6053577;28;20022;-65
2022/07/27 13:46:09;;;;;;;2.50;1.00;;;;;;;21.65;37.83;101209.47;6053317;28;20280;-67
2022/07/27 13:49:04;;;;;;;2.70;0.90;;;;;;;21.27;39.74;101196.56;6053518;28;20372;-64
2022/07/27 13:52:01;;;;;;;3.53;0.60;;;;;;;21.25;39.36;101201.31;6052752;28;20025;-66